sensor_id;sensor_type;location;lat;lon;timestamp;temperature;humidity
65568;DHT22;52211;50.154;8.682;2023-05-16T00:02:30;14.70;61.10
65568;DHT22;52211;50.154;8.682;2023-05-16T00:04:57;14.70;61.10
65568;DHT22;52211;50.154;8.682;2023-05-16T00:07:28;14.70;61.20
65568;DHT22;52211;50.154;8.682;2023-05-16T00:09:57;14.60;61.20
65568;DHT22;52211;50.154;8.682;2023-05-16T00:12:29;14.70;61.30
65568;DHT22;52211;50.154;8.682;2023-05-16T00:14:56;14.60;61.30
65568;DHT22;52211;50.154;8.682;2023-05-16T00:17:25;14.60;61.30
65568;DHT22;52211;50.154;8.682;2023-05-16T00:19:57;14.60;61.30
65568;DHT22;52211;50.154;8.682;2023-05-16T00:22:24;14.60;61.40
65568;DHT22;52211;50.154;8.682;2023-05-16T00:24:53;14.60;61.40
65568;DHT22;52211;50.154;8.682;2023-05-16T00:27:20;14.60;61.50
65568;DHT22;52211;50.154;8.682;2023-05-16T00:29:48;14.60;61.50
65568;DHT22;52211;50.154;8.682;2023-05-16T00:32:17;14.60;61.50
65568;DHT22;52211;50.154;8.682;2023-05-16T00:34:49;14.60;61.60
65568;DHT22;52211;50.154;8.682;2023-05-16T00:37:15;14.60;61.50
65568;DHT22;52211;50.154;8.682;2023-05-16T00:39:44;14.60;61.60
65568;DHT22;52211;50.154;8.682;2023-05-16T00:42:18;14.60;61.60
65568;DHT22;52211;50.154;8.682;2023-05-16T00:44:47;14.60;61.70
65568;DHT22;52211;50.154;8.682;2023-05-16T00:47:14;14.50;61.60
65568;DHT22;52211;50.154;8.682;2023-05-16T00:49:41;14.50;61.60
65568;DHT22;52211;50.154;8.682;2023-05-16T00:52:09;14.50;61.60
65568;DHT22;52211;50.154;8.682;2023-05-16T00:54:43;14.60;62.30
65568;DHT22;52211;50.154;8.682;2023-05-16T00:57:14;14.50;61.60
65568;DHT22;52211;50.154;8.682;2023-05-16T00:59:46;14.50;61.70
65568;DHT22;52211;50.154;8.682;2023-05-16T01:02:18;14.50;61.80
65568;DHT22;52211;50.154;8.682;2023-05-16T01:04:46;14.60;61.90
65568;DHT22;52211;50.154;8.682;2023-05-16T01:07:16;14.50;61.80
65568;DHT22;52211;50.154;8.682;2023-05-16T01:09:45;14.50;61.90
65568;DHT22;52211;50.154;8.682;2023-05-16T01:12:30;14.50;61.80
65568;DHT22;52211;50.154;8.682;2023-05-16T01:15:12;14.50;62.60
65568;DHT22;52211;50.154;8.682;2023-05-16T01:18:07;14.50;62.00
65568;DHT22;52211;50.154;8.682;2023-05-16T01:20:58;14.50;62.20
65568;DHT22;52211;50.154;8.682;2023-05-16T01:24:03;14.60;62.40
65568;DHT22;52211;50.154;8.682;2023-05-16T01:26:40;14.50;62.50
65568;DHT22;52211;50.154;8.682;2023-05-16T01:29:11;14.50;61.80
65568;DHT22;52211;50.154;8.682;2023-05-16T01:31:43;14.50;61.80
65568;DHT22;52211;50.154;8.682;2023-05-16T01:34:11;14.50;62.00
65568;DHT22;52211;50.154;8.682;2023-05-16T01:36:49;14.50;61.90
65568;DHT22;52211;50.154;8.682;2023-05-16T01:39:44;14.50;62.10
65568;DHT22;52211;50.154;8.682;2023-05-16T01:42:23;14.40;62.50
65568;DHT22;52211;50.154;8.682;2023-05-16T01:45:12;14.40;61.90
65568;DHT22;52211;50.154;8.682;2023-05-16T01:47:51;14.50;62.50
65568;DHT22;52211;50.154;8.682;2023-05-16T01:50:31;14.40;62.10
65568;DHT22;52211;50.154;8.682;2023-05-16T01:53:10;14.40;62.00
65568;DHT22;52211;50.154;8.682;2023-05-16T01:55:46;14.40;62.10
65568;DHT22;52211;50.154;8.682;2023-05-16T01:58:19;14.40;62.10
65568;DHT22;52211;50.154;8.682;2023-05-16T02:00:52;14.40;62.20
65568;DHT22;52211;50.154;8.682;2023-05-16T02:03:19;14.40;62.20
65568;DHT22;52211;50.154;8.682;2023-05-16T02:05:46;14.40;62.20
65568;DHT22;52211;50.154;8.682;2023-05-16T02:08:17;14.40;62.20
65568;DHT22;52211;50.154;8.682;2023-05-16T02:10:49;14.40;62.20
65568;DHT22;52211;50.154;8.682;2023-05-16T02:13:20;14.40;62.20
65568;DHT22;52211;50.154;8.682;2023-05-16T02:15:54;14.40;62.20
65568;DHT22;52211;50.154;8.682;2023-05-16T02:18:24;14.40;62.40
65568;DHT22;52211;50.154;8.682;2023-05-16T02:20:53;14.40;62.30
65568;DHT22;52211;50.154;8.682;2023-05-16T02:23:20;14.40;62.30
65568;DHT22;52211;50.154;8.682;2023-05-16T02:25:52;14.40;62.30
65568;DHT22;52211;50.154;8.682;2023-05-16T02:28:21;14.50;62.40
65568;DHT22;52211;50.154;8.682;2023-05-16T02:30:57;14.50;62.40
65568;DHT22;52211;50.154;8.682;2023-05-16T02:33:30;14.40;62.50
65568;DHT22;52211;50.154;8.682;2023-05-16T02:35:59;14.50;62.40
65568;DHT22;52211;50.154;8.682;2023-05-16T02:38:26;14.50;62.40
65568;DHT22;52211;50.154;8.682;2023-05-16T02:40:57;14.50;62.50
65568;DHT22;52211;50.154;8.682;2023-05-16T02:43:26;14.50;62.60
65568;DHT22;52211;50.154;8.682;2023-05-16T02:45:57;14.50;62.60
65568;DHT22;52211;50.154;8.682;2023-05-16T02:48:27;14.40;62.60
65568;DHT22;52211;50.154;8.682;2023-05-16T02:50:54;14.50;62.50
65568;DHT22;52211;50.154;8.682;2023-05-16T02:53:26;14.40;63.10
65568;DHT22;52211;50.154;8.682;2023-05-16T02:55:53;14.40;62.60
65568;DHT22;52211;50.154;8.682;2023-05-16T02:58:22;14.40;62.60
65568;DHT22;52211;50.154;8.682;2023-05-16T03:00:48;14.40;62.60
65568;DHT22;52211;50.154;8.682;2023-05-16T03:03:15;14.40;62.60
65568;DHT22;52211;50.154;8.682;2023-05-16T03:05:45;14.30;62.50
65568;DHT22;52211;50.154;8.682;2023-05-16T03:08:15;14.40;62.60
65568;DHT22;52211;50.154;8.682;2023-05-16T03:10:44;14.40;62.70
65568;DHT22;52211;50.154;8.682;2023-05-16T03:13:14;14.30;62.60
65568;DHT22;52211;50.154;8.682;2023-05-16T03:15:46;14.30;62.60
65568;DHT22;52211;50.154;8.682;2023-05-16T03:18:15;14.30;62.80
65568;DHT22;52211;50.154;8.682;2023-05-16T03:20:42;14.30;62.70
65568;DHT22;52211;50.154;8.682;2023-05-16T03:23:08;14.30;62.70
65568;DHT22;52211;50.154;8.682;2023-05-16T03:25:38;14.20;62.80
65568;DHT22;52211;50.154;8.682;2023-05-16T03:28:06;14.20;62.80
65568;DHT22;52211;50.154;8.682;2023-05-16T03:30:33;14.20;62.90
65568;DHT22;52211;50.154;8.682;2023-05-16T03:33:03;14.20;62.90
65568;DHT22;52211;50.154;8.682;2023-05-16T03:35:32;14.20;62.90
65568;DHT22;52211;50.154;8.682;2023-05-16T03:38:01;14.10;62.90
65568;DHT22;52211;50.154;8.682;2023-05-16T03:40:30;14.20;62.90
65568;DHT22;52211;50.154;8.682;2023-05-16T03:43:03;14.10;62.90
65568;DHT22;52211;50.154;8.682;2023-05-16T03:45:32;14.10;63.00
65568;DHT22;52211;50.154;8.682;2023-05-16T03:48:03;14.10;63.10
65568;DHT22;52211;50.154;8.682;2023-05-16T03:50:33;14.10;63.10
65568;DHT22;52211;50.154;8.682;2023-05-16T03:52:59;14.10;63.10
65568;DHT22;52211;50.154;8.682;2023-05-16T03:55:31;14.20;63.20
65568;DHT22;52211;50.154;8.682;2023-05-16T03:57:58;14.20;63.20
65568;DHT22;52211;50.154;8.682;2023-05-16T04:00:25;14.20;63.30
65568;DHT22;52211;50.154;8.682;2023-05-16T04:02:54;14.20;63.20
65568;DHT22;52211;50.154;8.682;2023-05-16T04:05:21;14.30;63.30
65568;DHT22;52211;50.154;8.682;2023-05-16T04:07:48;14.30;63.20
65568;DHT22;52211;50.154;8.682;2023-05-16T04:10:20;14.30;63.30
65568;DHT22;52211;50.154;8.682;2023-05-16T04:12:54;14.30;63.30
65568;DHT22;52211;50.154;8.682;2023-05-16T04:15:23;14.30;63.40
65568;DHT22;52211;50.154;8.682;2023-05-16T04:17:56;14.40;63.40
65568;DHT22;52211;50.154;8.682;2023-05-16T04:20:28;14.40;63.30
65568;DHT22;52211;50.154;8.682;2023-05-16T04:23:05;14.50;63.50
65568;DHT22;52211;50.154;8.682;2023-05-16T04:25:39;14.50;63.50
65568;DHT22;52211;50.154;8.682;2023-05-16T04:28:06;14.60;63.40
65568;DHT22;52211;50.154;8.682;2023-05-16T04:30:41;14.60;63.50
65568;DHT22;52211;50.154;8.682;2023-05-16T04:33:08;14.60;63.60
65568;DHT22;52211;50.154;8.682;2023-05-16T04:35:37;14.60;63.50
65568;DHT22;52211;50.154;8.682;2023-05-16T04:38:09;14.70;63.50
65568;DHT22;52211;50.154;8.682;2023-05-16T04:40:38;14.70;63.50
65568;DHT22;52211;50.154;8.682;2023-05-16T04:43:07;14.80;63.50
65568;DHT22;52211;50.154;8.682;2023-05-16T04:45:38;14.80;63.40
65568;DHT22;52211;50.154;8.682;2023-05-16T04:48:06;14.90;63.50
65568;DHT22;52211;50.154;8.682;2023-05-16T04:50:33;15.00;63.40
65568;DHT22;52211;50.154;8.682;2023-05-16T04:53:04;15.00;63.40
65568;DHT22;52211;50.154;8.682;2023-05-16T04:55:36;15.00;63.30
65568;DHT22;52211;50.154;8.682;2023-05-16T04:58:05;15.10;63.40
65568;DHT22;52211;50.154;8.682;2023-05-16T05:00:32;15.10;63.40
65568;DHT22;52211;50.154;8.682;2023-05-16T05:03:07;15.10;64.00
65568;DHT22;52211;50.154;8.682;2023-05-16T05:05:37;15.20;63.40
65568;DHT22;52211;50.154;8.682;2023-05-16T05:08:08;15.20;63.40
65568;DHT22;52211;50.154;8.682;2023-05-16T05:10:38;15.30;63.40
65568;DHT22;52211;50.154;8.682;2023-05-16T05:13:05;15.30;63.40
65568;DHT22;52211;50.154;8.682;2023-05-16T05:15:37;15.40;63.40
65568;DHT22;52211;50.154;8.682;2023-05-16T05:18:06;15.40;63.40
65568;DHT22;52211;50.154;8.682;2023-05-16T05:20:36;15.40;63.30
65568;DHT22;52211;50.154;8.682;2023-05-16T05:23:04;15.40;63.20
65568;DHT22;52211;50.154;8.682;2023-05-16T05:25:35;15.50;63.20
65568;DHT22;52211;50.154;8.682;2023-05-16T05:28:05;15.50;63.20
65568;DHT22;52211;50.154;8.682;2023-05-16T05:30:36;15.50;63.10
65568;DHT22;52211;50.154;8.682;2023-05-16T05:33:04;15.60;63.20
65568;DHT22;52211;50.154;8.682;2023-05-16T05:35:34;15.60;63.20
65568;DHT22;52211;50.154;8.682;2023-05-16T05:38:06;15.60;63.20
65568;DHT22;52211;50.154;8.682;2023-05-16T05:40:35;15.60;63.20
65568;DHT22;52211;50.154;8.682;2023-05-16T05:43:04;15.70;63.10
65568;DHT22;52211;50.154;8.682;2023-05-16T05:45:31;15.60;63.00
65568;DHT22;52211;50.154;8.682;2023-05-16T05:48:03;15.70;63.00
65568;DHT22;52211;50.154;8.682;2023-05-16T05:50:30;15.70;62.90
65568;DHT22;52211;50.154;8.682;2023-05-16T05:53:00;15.60;62.80
65568;DHT22;52211;50.154;8.682;2023-05-16T05:55:29;15.60;62.80
65568;DHT22;52211;50.154;8.682;2023-05-16T05:57:58;15.60;62.80
65568;DHT22;52211;50.154;8.682;2023-05-16T06:00:29;15.70;62.70
65568;DHT22;52211;50.154;8.682;2023-05-16T06:02:57;15.60;62.50
65568;DHT22;52211;50.154;8.682;2023-05-16T06:05:24;15.60;62.40
65568;DHT22;52211;50.154;8.682;2023-05-16T06:07:51;15.60;62.40
65568;DHT22;52211;50.154;8.682;2023-05-16T06:10:26;15.60;62.20
65568;DHT22;52211;50.154;8.682;2023-05-16T06:12:57;15.50;62.30
65568;DHT22;52211;50.154;8.682;2023-05-16T06:15:26;15.50;62.20
65568;DHT22;52211;50.154;8.682;2023-05-16T06:17:54;15.50;62.20
65568;DHT22;52211;50.154;8.682;2023-05-16T06:20:23;15.50;62.10
65568;DHT22;52211;50.154;8.682;2023-05-16T06:22:52;15.40;62.00
65568;DHT22;52211;50.154;8.682;2023-05-16T06:25:20;15.40;62.10
65568;DHT22;52211;50.154;8.682;2023-05-16T06:27:49;15.40;62.20
65568;DHT22;52211;50.154;8.682;2023-05-16T06:30:16;15.40;62.30
65568;DHT22;52211;50.154;8.682;2023-05-16T06:32:43;15.40;62.30
65568;DHT22;52211;50.154;8.682;2023-05-16T06:35:10;15.40;62.30
65568;DHT22;52211;50.154;8.682;2023-05-16T06:37:41;15.40;62.30
65568;DHT22;52211;50.154;8.682;2023-05-16T06:40:10;15.40;62.30
65568;DHT22;52211;50.154;8.682;2023-05-16T06:42:40;15.50;62.30
65568;DHT22;52211;50.154;8.682;2023-05-16T06:45:08;15.50;62.30
65568;DHT22;52211;50.154;8.682;2023-05-16T06:47:38;15.50;62.30
65568;DHT22;52211;50.154;8.682;2023-05-16T06:50:06;15.40;62.30
65568;DHT22;52211;50.154;8.682;2023-05-16T06:52:33;15.40;62.30
65568;DHT22;52211;50.154;8.682;2023-05-16T06:55:02;15.50;62.30
65568;DHT22;52211;50.154;8.682;2023-05-16T06:57:29;15.40;62.20
65568;DHT22;52211;50.154;8.682;2023-05-16T06:59:59;15.50;62.30
65568;DHT22;52211;50.154;8.682;2023-05-16T07:02:30;15.40;62.40
65568;DHT22;52211;50.154;8.682;2023-05-16T07:05:00;15.50;62.50
65568;DHT22;52211;50.154;8.682;2023-05-16T07:07:34;15.40;62.40
65568;DHT22;52211;50.154;8.682;2023-05-16T07:10:04;15.50;62.40
65568;DHT22;52211;50.154;8.682;2023-05-16T07:12:39;15.50;62.50
65568;DHT22;52211;50.154;8.682;2023-05-16T07:15:09;15.50;62.50
65568;DHT22;52211;50.154;8.682;2023-05-16T07:17:36;15.50;62.40
65568;DHT22;52211;50.154;8.682;2023-05-16T07:20:04;15.50;62.40
65568;DHT22;52211;50.154;8.682;2023-05-16T07:22:39;15.50;62.40
65568;DHT22;52211;50.154;8.682;2023-05-16T07:25:06;15.50;62.40
65568;DHT22;52211;50.154;8.682;2023-05-16T07:27:46;15.50;62.40
65568;DHT22;52211;50.154;8.682;2023-05-16T07:30:16;15.50;62.40
65568;DHT22;52211;50.154;8.682;2023-05-16T07:32:48;15.60;62.40
65568;DHT22;52211;50.154;8.682;2023-05-16T07:35:17;15.50;62.20
65568;DHT22;52211;50.154;8.682;2023-05-16T07:37:47;15.60;62.20
65568;DHT22;52211;50.154;8.682;2023-05-16T07:40:14;15.50;62.10
65568;DHT22;52211;50.154;8.682;2023-05-16T07:42:43;15.60;62.20
65568;DHT22;52211;50.154;8.682;2023-05-16T07:45:13;15.60;62.10
65568;DHT22;52211;50.154;8.682;2023-05-16T07:47:40;15.60;62.00
65568;DHT22;52211;50.154;8.682;2023-05-16T07:50:12;15.50;61.90
65568;DHT22;52211;50.154;8.682;2023-05-16T07:52:41;15.50;61.80
65568;DHT22;52211;50.154;8.682;2023-05-16T07:55:15;15.50;61.70
65568;DHT22;52211;50.154;8.682;2023-05-16T07:57:43;15.50;61.70
65568;DHT22;52211;50.154;8.682;2023-05-16T08:00:12;15.40;61.70
65568;DHT22;52211;50.154;8.682;2023-05-16T08:02:42;15.40;61.70
65568;DHT22;52211;50.154;8.682;2023-05-16T08:05:09;15.40;61.70
65568;DHT22;52211;50.154;8.682;2023-05-16T08:07:38;15.40;61.70
65568;DHT22;52211;50.154;8.682;2023-05-16T08:10:05;15.30;61.70
65568;DHT22;52211;50.154;8.682;2023-05-16T08:12:35;15.30;61.80
65568;DHT22;52211;50.154;8.682;2023-05-16T08:15:03;15.20;61.90
65568;DHT22;52211;50.154;8.682;2023-05-16T08:17:30;15.30;61.90
65568;DHT22;52211;50.154;8.682;2023-05-16T08:19:57;15.20;61.90
65568;DHT22;52211;50.154;8.682;2023-05-16T08:22:31;15.20;61.90
65568;DHT22;52211;50.154;8.682;2023-05-16T08:24:58;15.20;61.90
65568;DHT22;52211;50.154;8.682;2023-05-16T08:27:27;15.20;62.00
65568;DHT22;52211;50.154;8.682;2023-05-16T08:29:54;15.20;61.90
65568;DHT22;52211;50.154;8.682;2023-05-16T08:32:21;15.20;61.90
65568;DHT22;52211;50.154;8.682;2023-05-16T08:34:48;15.10;61.90
65568;DHT22;52211;50.154;8.682;2023-05-16T08:37:21;15.10;61.90
65568;DHT22;52211;50.154;8.682;2023-05-16T08:39:48;15.10;61.80
65568;DHT22;52211;50.154;8.682;2023-05-16T08:42:17;15.10;61.70
65568;DHT22;52211;50.154;8.682;2023-05-16T08:44:46;15.10;61.70
65568;DHT22;52211;50.154;8.682;2023-05-16T08:47:18;14.90;61.50
65568;DHT22;52211;50.154;8.682;2023-05-16T08:49:47;15.00;61.50
65568;DHT22;52211;50.154;8.682;2023-05-16T08:52:18;15.00;61.50
65568;DHT22;52211;50.154;8.682;2023-05-16T08:54:49;14.90;61.50
65568;DHT22;52211;50.154;8.682;2023-05-16T08:57:36;14.90;61.50
65568;DHT22;52211;50.154;8.682;2023-05-16T09:00:07;14.90;61.60
65568;DHT22;52211;50.154;8.682;2023-05-16T09:02:39;14.80;61.60
65568;DHT22;52211;50.154;8.682;2023-05-16T09:05:08;14.80;61.70
65568;DHT22;52211;50.154;8.682;2023-05-16T09:07:43;14.90;61.80
65568;DHT22;52211;50.154;8.682;2023-05-16T09:10:11;14.80;61.80
65568;DHT22;52211;50.154;8.682;2023-05-16T09:12:43;14.80;61.80
65568;DHT22;52211;50.154;8.682;2023-05-16T09:15:10;14.90;61.90
65568;DHT22;52211;50.154;8.682;2023-05-16T09:17:40;14.80;61.80
65568;DHT22;52211;50.154;8.682;2023-05-16T09:20:22;14.80;61.90
65568;DHT22;52211;50.154;8.682;2023-05-16T09:22:57;14.80;62.00
65568;DHT22;52211;50.154;8.682;2023-05-16T09:25:27;14.80;62.00
65568;DHT22;52211;50.154;8.682;2023-05-16T09:28:00;14.80;62.00
65568;DHT22;52211;50.154;8.682;2023-05-16T09:30:33;14.90;62.00
65568;DHT22;52211;50.154;8.682;2023-05-16T09:33:05;14.90;62.00
65568;DHT22;52211;50.154;8.682;2023-05-16T09:35:33;14.90;61.90
65568;DHT22;52211;50.154;8.682;2023-05-16T09:38:16;15.00;61.90
65568;DHT22;52211;50.154;8.682;2023-05-16T09:40:44;15.10;62.00
65568;DHT22;52211;50.154;8.682;2023-05-16T09:43:14;15.10;62.00
65568;DHT22;52211;50.154;8.682;2023-05-16T09:45:46;15.10;61.90
65568;DHT22;52211;50.154;8.682;2023-05-16T09:48:23;15.20;61.90
65568;DHT22;52211;50.154;8.682;2023-05-16T09:50:56;15.20;61.70
65568;DHT22;52211;50.154;8.682;2023-05-16T09:53:32;15.30;61.60
65568;DHT22;52211;50.154;8.682;2023-05-16T09:56:09;15.40;61.30
65568;DHT22;52211;50.154;8.682;2023-05-16T09:58:41;15.40;61.30
65568;DHT22;52211;50.154;8.682;2023-05-16T10:01:14;15.50;61.30
65568;DHT22;52211;50.154;8.682;2023-05-16T10:03:45;15.60;61.10
65568;DHT22;52211;50.154;8.682;2023-05-16T10:06:13;15.70;61.20
65568;DHT22;52211;50.154;8.682;2023-05-16T10:08:42;15.80;61.20
65568;DHT22;52211;50.154;8.682;2023-05-16T10:11:10;15.90;61.10
65568;DHT22;52211;50.154;8.682;2023-05-16T10:13:39;16.10;61.00
65568;DHT22;52211;50.154;8.682;2023-05-16T10:16:14;16.10;60.80
65568;DHT22;52211;50.154;8.682;2023-05-16T10:18:44;16.20;60.50
65568;DHT22;52211;50.154;8.682;2023-05-16T10:21:18;16.30;60.20
65568;DHT22;52211;50.154;8.682;2023-05-16T10:23:50;16.30;59.80
65568;DHT22;52211;50.154;8.682;2023-05-16T10:26:23;16.40;60.00
65568;DHT22;52211;50.154;8.682;2023-05-16T10:28:52;16.40;59.80
65568;DHT22;52211;50.154;8.682;2023-05-16T10:31:22;16.40;59.60
65568;DHT22;52211;50.154;8.682;2023-05-16T10:33:52;16.50;59.60
65568;DHT22;52211;50.154;8.682;2023-05-16T10:36:22;16.40;59.20
65568;DHT22;52211;50.154;8.682;2023-05-16T10:38:54;16.50;59.30
65568;DHT22;52211;50.154;8.682;2023-05-16T10:41:26;16.50;59.10
65568;DHT22;52211;50.154;8.682;2023-05-16T10:43:57;16.50;58.90
65568;DHT22;52211;50.154;8.682;2023-05-16T10:46:26;16.50;58.70
65568;DHT22;52211;50.154;8.682;2023-05-16T10:49:22;16.50;58.60
65568;DHT22;52211;50.154;8.682;2023-05-16T10:52:09;16.60;58.30
65568;DHT22;52211;50.154;8.682;2023-05-16T10:54:43;16.60;58.00
65568;DHT22;52211;50.154;8.682;2023-05-16T10:57:18;16.60;58.20
65568;DHT22;52211;50.154;8.682;2023-05-16T10:59:53;16.70;58.50
65568;DHT22;52211;50.154;8.682;2023-05-16T11:02:30;16.70;58.40
65568;DHT22;52211;50.154;8.682;2023-05-16T11:05:01;16.80;58.30
65568;DHT22;52211;50.154;8.682;2023-05-16T11:07:34;16.80;58.10
65568;DHT22;52211;50.154;8.682;2023-05-16T11:10:15;16.90;58.00
65568;DHT22;52211;50.154;8.682;2023-05-16T11:12:51;16.90;57.60
65568;DHT22;52211;50.154;8.682;2023-05-16T11:15:25;16.90;57.80
65568;DHT22;52211;50.154;8.682;2023-05-16T11:18:07;17.00;57.30
65568;DHT22;52211;50.154;8.682;2023-05-16T11:20:39;17.00;56.80
65568;DHT22;52211;50.154;8.682;2023-05-16T11:25:45;17.00;56.00
65568;DHT22;52211;50.154;8.682;2023-05-16T11:28:24;17.00;56.80
65568;DHT22;52211;50.154;8.682;2023-05-16T11:30:57;17.00;56.70
65568;DHT22;52211;50.154;8.682;2023-05-16T11:33:29;17.00;56.20
65568;DHT22;52211;50.154;8.682;2023-05-16T11:38:42;17.10;56.50
65568;DHT22;52211;50.154;8.682;2023-05-16T11:41:14;17.20;56.30
65568;DHT22;52211;50.154;8.682;2023-05-16T11:43:45;17.30;55.80
65568;DHT22;52211;50.154;8.682;2023-05-16T11:46:18;17.30;56.60
65568;DHT22;52211;50.154;8.682;2023-05-16T11:48:47;17.30;55.50
65568;DHT22;52211;50.154;8.682;2023-05-16T11:51:17;17.30;55.50
65568;DHT22;52211;50.154;8.682;2023-05-16T11:53:48;17.40;55.40
65568;DHT22;52211;50.154;8.682;2023-05-16T11:56:21;17.40;55.50
65568;DHT22;52211;50.154;8.682;2023-05-16T11:58:55;17.40;55.40
65568;DHT22;52211;50.154;8.682;2023-05-16T12:01:34;17.50;55.50
65568;DHT22;52211;50.154;8.682;2023-05-16T12:04:12;17.60;55.50
65568;DHT22;52211;50.154;8.682;2023-05-16T12:06:56;17.80;56.30
65568;DHT22;52211;50.154;8.682;2023-05-16T12:09:25;18.30;56.70
65568;DHT22;52211;50.154;8.682;2023-05-16T12:11:54;18.60;57.00
65568;DHT22;52211;50.154;8.682;2023-05-16T12:14:24;19.10;56.80
65568;DHT22;52211;50.154;8.682;2023-05-16T12:16:56;19.50;56.30
65568;DHT22;52211;50.154;8.682;2023-05-16T12:19:26;20.00;55.60
65568;DHT22;52211;50.154;8.682;2023-05-16T12:21:58;20.60;55.60
65568;DHT22;52211;50.154;8.682;2023-05-16T12:24:31;21.10;55.00
65568;DHT22;52211;50.154;8.682;2023-05-16T12:27:02;21.50;53.10
65568;DHT22;52211;50.154;8.682;2023-05-16T12:29:30;21.90;52.70
65568;DHT22;52211;50.154;8.682;2023-05-16T12:31:59;22.20;53.00
65568;DHT22;52211;50.154;8.682;2023-05-16T12:34:29;22.60;52.20
65568;DHT22;52211;50.154;8.682;2023-05-16T12:37:03;23.00;51.20
65568;DHT22;52211;50.154;8.682;2023-05-16T12:39:36;23.30;50.60
65568;DHT22;52211;50.154;8.682;2023-05-16T12:42:05;23.60;49.10
65568;DHT22;52211;50.154;8.682;2023-05-16T12:44:33;23.80;49.00
65568;DHT22;52211;50.154;8.682;2023-05-16T12:47:00;24.00;48.80
65568;DHT22;52211;50.154;8.682;2023-05-16T12:49:34;24.10;48.40
65568;DHT22;52211;50.154;8.682;2023-05-16T12:52:01;24.30;47.70
65568;DHT22;52211;50.154;8.682;2023-05-16T12:54:31;24.30;47.50
65568;DHT22;52211;50.154;8.682;2023-05-16T12:56:58;24.40;47.50
65568;DHT22;52211;50.154;8.682;2023-05-16T12:59:29;24.50;47.30
65568;DHT22;52211;50.154;8.682;2023-05-16T13:01:56;24.70;47.30
65568;DHT22;52211;50.154;8.682;2023-05-16T13:04:26;24.90;47.40
65568;DHT22;52211;50.154;8.682;2023-05-16T13:06:56;25.20;46.80
65568;DHT22;52211;50.154;8.682;2023-05-16T13:09:30;25.30;46.10
65568;DHT22;52211;50.154;8.682;2023-05-16T13:12:01;25.50;45.70
65568;DHT22;52211;50.154;8.682;2023-05-16T13:14:30;25.60;44.60
65568;DHT22;52211;50.154;8.682;2023-05-16T13:17:04;25.80;44.30
65568;DHT22;52211;50.154;8.682;2023-05-16T13:19:31;25.80;44.60
65568;DHT22;52211;50.154;8.682;2023-05-16T13:21:58;25.90;44.50
65568;DHT22;52211;50.154;8.682;2023-05-16T13:24:30;26.00;43.90
65568;DHT22;52211;50.154;8.682;2023-05-16T13:26:59;26.10;43.10
65568;DHT22;52211;50.154;8.682;2023-05-16T13:29:26;26.20;43.30
65568;DHT22;52211;50.154;8.682;2023-05-16T13:32:01;26.30;43.30
65568;DHT22;52211;50.154;8.682;2023-05-16T13:34:28;26.40;42.90
65568;DHT22;52211;50.154;8.682;2023-05-16T13:36:58;26.40;42.20
65568;DHT22;52211;50.154;8.682;2023-05-16T13:39:25;26.40;42.30
65568;DHT22;52211;50.154;8.682;2023-05-16T13:41:58;26.50;42.30
65568;DHT22;52211;50.154;8.682;2023-05-16T13:44:25;26.60;41.80
65568;DHT22;52211;50.154;8.682;2023-05-16T13:46:55;26.60;41.30
65568;DHT22;52211;50.154;8.682;2023-05-16T13:49:24;26.50;41.00
65568;DHT22;52211;50.154;8.682;2023-05-16T13:51:56;26.20;40.40
65568;DHT22;52211;50.154;8.682;2023-05-16T13:54:27;26.00;40.10
65568;DHT22;52211;50.154;8.682;2023-05-16T13:56:54;25.70;40.40
65568;DHT22;52211;50.154;8.682;2023-05-16T13:59:23;25.50;40.30
65568;DHT22;52211;50.154;8.682;2023-05-16T14:02:15;25.30;40.20
65568;DHT22;52211;50.154;8.682;2023-05-16T14:04:44;25.00;40.20
65568;DHT22;52211;50.154;8.682;2023-05-16T14:07:20;24.80;40.50
65568;DHT22;52211;50.154;8.682;2023-05-16T14:09:49;24.50;39.40
65568;DHT22;52211;50.154;8.682;2023-05-16T14:12:16;24.10;39.60
65568;DHT22;52211;50.154;8.682;2023-05-16T14:14:48;23.90;39.70
65568;DHT22;52211;50.154;8.682;2023-05-16T14:17:19;23.70;40.30
65568;DHT22;52211;50.154;8.682;2023-05-16T14:19:46;23.70;40.60
65568;DHT22;52211;50.154;8.682;2023-05-16T14:22:13;23.70;40.80
65568;DHT22;52211;50.154;8.682;2023-05-16T14:24:40;23.90;41.00
65568;DHT22;52211;50.154;8.682;2023-05-16T14:27:07;24.20;40.70
65568;DHT22;52211;50.154;8.682;2023-05-16T14:29:36;24.40;40.60
65568;DHT22;52211;50.154;8.682;2023-05-16T14:32:04;24.60;40.30
65568;DHT22;52211;50.154;8.682;2023-05-16T14:34:33;24.80;40.20
65568;DHT22;52211;50.154;8.682;2023-05-16T14:37:05;24.90;39.60
65568;DHT22;52211;50.154;8.682;2023-05-16T14:39:32;25.00;38.70
65568;DHT22;52211;50.154;8.682;2023-05-16T14:42:02;25.00;38.60
65568;DHT22;52211;50.154;8.682;2023-05-16T14:44:39;24.90;38.60
65568;DHT22;52211;50.154;8.682;2023-05-16T14:47:08;24.70;38.30
65568;DHT22;52211;50.154;8.682;2023-05-16T14:49:39;24.60;38.60
65568;DHT22;52211;50.154;8.682;2023-05-16T14:52:09;24.50;38.80
65568;DHT22;52211;50.154;8.682;2023-05-16T14:54:38;24.50;38.90
65568;DHT22;52211;50.154;8.682;2023-05-16T14:57:05;24.50;38.80
65568;DHT22;52211;50.154;8.682;2023-05-16T14:59:35;24.50;38.60
65568;DHT22;52211;50.154;8.682;2023-05-16T15:02:07;24.50;38.20
65568;DHT22;52211;50.154;8.682;2023-05-16T15:04:34;24.60;38.70
65568;DHT22;52211;50.154;8.682;2023-05-16T15:07:04;24.90;38.70
65568;DHT22;52211;50.154;8.682;2023-05-16T15:09:37;25.00;38.20
65568;DHT22;52211;50.154;8.682;2023-05-16T15:12:07;25.10;38.00
65568;DHT22;52211;50.154;8.682;2023-05-16T15:14:36;25.20;37.70
65568;DHT22;52211;50.154;8.682;2023-05-16T15:17:06;25.10;37.80
65568;DHT22;52211;50.154;8.682;2023-05-16T15:19:38;25.30;37.80
65568;DHT22;52211;50.154;8.682;2023-05-16T15:22:04;25.40;37.50
65568;DHT22;52211;50.154;8.682;2023-05-16T15:24:36;25.50;37.30
65568;DHT22;52211;50.154;8.682;2023-05-16T15:27:05;25.50;36.70
65568;DHT22;52211;50.154;8.682;2023-05-16T15:29:34;25.50;36.80
65568;DHT22;52211;50.154;8.682;2023-05-16T15:32:07;25.40;36.60
65568;DHT22;52211;50.154;8.682;2023-05-16T15:34:39;25.20;35.90
65568;DHT22;52211;50.154;8.682;2023-05-16T15:37:06;25.00;36.30
65568;DHT22;52211;50.154;8.682;2023-05-16T15:39:33;24.60;36.00
65568;DHT22;52211;50.154;8.682;2023-05-16T15:41:59;24.30;35.80
65568;DHT22;52211;50.154;8.682;2023-05-16T15:44:37;24.10;36.20
65568;DHT22;52211;50.154;8.682;2023-05-16T15:47:06;24.00;36.50
65568;DHT22;52211;50.154;8.682;2023-05-16T15:49:37;24.00;36.60
65568;DHT22;52211;50.154;8.682;2023-05-16T15:52:05;24.10;36.50
65568;DHT22;52211;50.154;8.682;2023-05-16T15:54:35;24.30;36.90
65568;DHT22;52211;50.154;8.682;2023-05-16T15:57:02;24.60;35.80
65568;DHT22;52211;50.154;8.682;2023-05-16T15:59:29;24.80;36.50